createdAt,value
2022-11-10T00:00:57.544Z,12.04
2022-11-10T00:03:28.269Z,12.03
2022-11-10T00:05:56.179Z,12.00
2022-11-10T00:08:24.345Z,11.99
2022-11-10T00:11:02.164Z,11.97
2022-11-10T00:13:31.163Z,11.97
2022-11-10T00:16:21.440Z,11.97
2022-11-10T00:18:48.125Z,11.94
2022-11-10T00:21:16.325Z,11.94
2022-11-10T00:23:47.675Z,11.90
2022-11-10T00:26:16.375Z,11.88
2022-11-10T00:28:43.667Z,11.87
2022-11-10T00:31:11.079Z,11.85
2022-11-10T00:33:39.586Z,11.84
2022-11-10T00:36:06.738Z,11.83
2022-11-10T00:38:33.473Z,11.83
2022-11-10T00:41:02.024Z,11.84
2022-11-10T00:43:30.082Z,11.83
2022-11-10T00:45:57.605Z,11.81
2022-11-10T00:48:24.552Z,11.80
2022-11-10T00:50:51.455Z,11.78
2022-11-10T00:53:18.704Z,11.77
2022-11-10T00:55:45.736Z,11.77
2022-11-10T00:58:13.772Z,11.79
2022-11-10T01:00:40.983Z,11.76
2022-11-10T01:03:07.683Z,11.76
2022-11-10T01:05:37.214Z,11.75
2022-11-10T01:08:04.520Z,11.73
2022-11-10T01:10:32.126Z,11.74
2022-11-10T01:12:59.103Z,11.74
2022-11-10T01:15:28.152Z,11.74
2022-11-10T01:17:56.305Z,11.74
2022-11-10T01:20:23.005Z,11.71
2022-11-10T01:22:49.714Z,11.70
2022-11-10T01:25:16.475Z,11.70
2022-11-10T01:27:43.113Z,11.69
2022-11-10T01:30:10.610Z,11.70
2022-11-10T01:32:38.539Z,11.70
2022-11-10T01:35:06.347Z,11.69
2022-11-10T01:37:33.159Z,11.68
2022-11-10T01:39:59.810Z,11.68
2022-11-10T01:42:29.061Z,11.64
2022-11-10T01:45:40.269Z,11.66
2022-11-10T01:48:11.174Z,11.62
2022-11-10T01:50:41.793Z,11.62
2022-11-10T01:53:21.065Z,11.62
2022-11-10T01:55:49.062Z,11.61
2022-11-10T01:58:21.022Z,11.60
2022-11-10T02:00:47.658Z,11.59
2022-11-10T02:03:23.362Z,11.61
2022-11-10T02:05:50.622Z,11.60
2022-11-10T02:08:19.030Z,11.60
2022-11-10T02:10:45.826Z,11.61
2022-11-10T02:13:12.800Z,11.61
2022-11-10T02:15:40.027Z,11.61
2022-11-10T02:18:06.785Z,11.59
2022-11-10T02:20:35.347Z,11.58
2022-11-10T02:23:14.003Z,11.56
2022-11-10T02:25:40.825Z,11.54
2022-11-10T02:28:07.601Z,11.54
2022-11-10T02:30:34.256Z,11.53
2022-11-10T02:33:00.984Z,11.51
2022-11-10T02:35:27.618Z,11.50
2022-11-10T02:37:54.339Z,11.50
2022-11-10T02:40:23.371Z,11.52
2022-11-10T02:42:49.955Z,11.50
2022-11-10T02:45:16.843Z,11.49
2022-11-10T02:47:43.469Z,11.49
2022-11-10T02:50:10.301Z,11.48
2022-11-10T02:52:36.936Z,11.50
2022-11-10T02:55:04.253Z,11.50
2022-11-10T02:57:32.227Z,11.46
2022-11-10T02:59:58.905Z,11.46
2022-11-10T03:02:31.055Z,11.44
2022-11-10T03:04:58.942Z,11.43
2022-11-10T03:07:25.577Z,11.45
2022-11-10T03:09:52.443Z,11.44
2022-11-10T03:12:19.071Z,11.44
2022-11-10T03:14:47.265Z,11.44
2022-11-10T03:17:13.925Z,11.44
2022-11-10T03:19:40.594Z,11.44
2022-11-10T03:22:07.223Z,11.42
2022-11-10T03:24:33.840Z,11.40
2022-11-10T03:27:00.729Z,11.38
2022-11-10T03:29:27.417Z,11.39
2022-11-10T03:31:55.650Z,11.38
2022-11-10T03:34:22.278Z,11.37
2022-11-10T03:36:49.177Z,11.37
2022-11-10T03:39:16.105Z,11.37
2022-11-10T03:41:42.771Z,11.38
2022-11-10T03:44:09.320Z,11.38
2022-11-10T03:46:36.218Z,11.37
2022-11-10T03:49:04.410Z,11.36
2022-11-10T03:51:31.042Z,11.34
2022-11-10T03:53:57.719Z,11.33
2022-11-10T03:56:24.290Z,11.33
2022-11-10T03:58:51.877Z,11.33
2022-11-10T04:01:18.781Z,11.32
2022-11-10T04:03:51.126Z,11.30
2022-11-10T04:06:38.469Z,11.29
2022-11-10T04:09:05.658Z,11.29
2022-11-10T04:11:50.779Z,11.29
2022-11-10T04:14:36.204Z,11.28
2022-11-10T04:17:03.473Z,11.28
2022-11-10T04:19:30.556Z,11.26
2022-11-10T04:21:58.563Z,11.24
2022-11-10T04:24:25.247Z,11.23
2022-11-10T04:26:51.910Z,11.23
2022-11-10T04:29:19.914Z,11.23
2022-11-10T04:31:46.623Z,11.22
2022-11-10T04:34:15.648Z,11.23
2022-11-10T04:36:43.401Z,11.23
2022-11-10T04:39:11.637Z,11.22
2022-11-10T04:41:38.507Z,11.22
2022-11-10T04:44:05.478Z,11.23
2022-11-10T04:46:34.036Z,11.23
2022-11-10T04:49:01.919Z,11.25
2022-11-10T04:51:30.378Z,11.24
2022-11-10T04:53:57.145Z,11.24
2022-11-10T04:56:26.043Z,11.23
2022-11-10T04:58:52.839Z,11.22
2022-11-10T05:01:27.503Z,11.21
2022-11-10T05:03:55.061Z,11.22
2022-11-10T05:06:21.968Z,11.20
2022-11-10T05:08:49.039Z,11.20
2022-11-10T05:11:16.175Z,11.19
2022-11-10T05:13:45.866Z,11.20
2022-11-10T05:16:12.987Z,11.19
2022-11-10T05:18:39.742Z,11.18
2022-11-10T05:21:06.466Z,11.17
2022-11-10T05:23:41.761Z,11.16
2022-11-10T05:26:10.661Z,11.15
2022-11-10T05:28:37.436Z,11.12
2022-11-10T05:31:05.744Z,11.14
2022-11-10T05:33:32.862Z,11.14
2022-11-10T05:35:59.612Z,11.14
2022-11-10T05:38:26.910Z,11.15
2022-11-10T05:40:53.632Z,11.15
2022-11-10T05:43:20.635Z,11.14
2022-11-10T05:45:47.669Z,11.13
2022-11-10T05:48:15.693Z,11.13
2022-11-10T05:50:42.618Z,11.13
2022-11-10T05:53:09.430Z,11.12
2022-11-10T05:55:36.747Z,11.14
2022-11-10T05:58:03.594Z,11.12
2022-11-10T06:00:31.961Z,11.09
2022-11-10T06:03:00.385Z,11.10
2022-11-10T06:05:31.368Z,11.10
2022-11-10T06:07:59.104Z,11.10
2022-11-10T06:10:26.713Z,11.09
2022-11-10T06:12:54.040Z,11.07
2022-11-10T06:15:21.758Z,11.06
2022-11-10T06:17:48.759Z,11.07
2022-11-10T06:20:17.704Z,11.09
2022-11-10T06:22:59.019Z,11.10
2022-11-10T06:25:30.031Z,11.05
2022-11-10T06:27:57.156Z,11.07
2022-11-10T06:30:24.708Z,11.06
2022-11-10T06:32:51.916Z,11.06
2022-11-10T06:35:19.450Z,11.08
2022-11-10T06:37:57.357Z,11.07
2022-11-10T06:40:24.017Z,11.05
2022-11-10T06:42:50.904Z,11.05
2022-11-10T06:45:17.643Z,11.05
2022-11-10T06:47:44.532Z,11.04
2022-11-10T06:50:11.295Z,11.05
2022-11-10T06:52:37.981Z,11.04
2022-11-10T06:55:07.019Z,11.03
2022-11-10T06:57:37.878Z,11.02
2022-11-10T07:00:08.112Z,11.02
2022-11-10T07:02:35.059Z,11.02
2022-11-10T07:05:01.792Z,11.02
2022-11-10T07:07:28.689Z,11.02
2022-11-10T07:09:55.353Z,11.04
2022-11-10T07:12:23.533Z,11.02
2022-11-10T07:14:52.850Z,11.03
2022-11-10T07:17:19.577Z,11.02
2022-11-10T07:19:46.244Z,11.00
2022-11-10T07:22:12.946Z,11.02
2022-11-10T07:24:39.558Z,11.02
2022-11-10T07:27:08.118Z,11.05
2022-11-10T07:29:36.189Z,11.05
2022-11-10T07:32:03.362Z,11.07
2022-11-10T07:34:30.094Z,11.09
2022-11-10T07:36:57.855Z,11.09
2022-11-10T07:39:24.505Z,11.08
2022-11-10T07:41:52.593Z,11.09
2022-11-10T07:44:19.564Z,11.10
2022-11-10T07:46:47.740Z,11.11
2022-11-10T07:49:14.505Z,11.10
2022-11-10T07:51:42.902Z,11.11
2022-11-10T07:54:09.869Z,11.11
2022-11-10T07:56:36.605Z,11.13
2022-11-10T07:59:03.508Z,11.12
2022-11-10T08:01:30.254Z,11.12
2022-11-10T08:03:58.326Z,11.13
2022-11-10T08:06:25.301Z,11.13
2022-11-10T08:08:51.987Z,11.15
2022-11-10T08:11:18.641Z,11.16
2022-11-10T08:13:45.204Z,11.17
2022-11-10T08:16:11.864Z,11.17
2022-11-10T08:18:38.508Z,11.19
2022-11-10T08:21:07.064Z,11.21
2022-11-10T08:23:33.703Z,11.23
2022-11-10T08:26:01.775Z,11.24
2022-11-10T08:28:28.437Z,11.24
2022-11-10T08:30:56.221Z,11.26
2022-11-10T08:33:23.266Z,11.27
2022-11-10T08:35:52.557Z,11.29
2022-11-10T08:38:21.962Z,11.31
2022-11-10T08:40:49.286Z,11.32
2022-11-10T08:43:17.368Z,11.34
2022-11-10T08:45:45.240Z,11.37
2022-11-10T08:48:13.886Z,11.39
2022-11-10T08:50:41.219Z,11.43
2022-11-10T08:53:11.516Z,11.46
2022-11-10T08:55:39.911Z,11.49
2022-11-10T08:58:08.639Z,11.53
2022-11-10T09:00:35.577Z,11.57
2022-11-10T09:03:06.949Z,11.60
2022-11-10T09:05:33.838Z,11.64
2022-11-10T09:08:00.546Z,11.70
2022-11-10T09:10:27.107Z,11.73
2022-11-10T09:12:58.378Z,11.76
2022-11-10T09:15:24.945Z,11.80
2022-11-10T09:17:51.631Z,11.82
2022-11-10T09:20:19.541Z,11.87
2022-11-10T09:22:46.107Z,11.89
2022-11-10T09:25:12.876Z,11.94
2022-11-10T09:27:39.675Z,11.98
2022-11-10T09:30:13.067Z,12.00
2022-11-10T09:32:46.878Z,12.05
2022-11-10T09:35:13.789Z,12.11
2022-11-10T09:37:40.770Z,12.15
2022-11-10T09:40:16.806Z,12.20
2022-11-10T09:42:44.308Z,12.24
2022-11-10T09:45:21.999Z,12.30
2022-11-10T09:48:00.504Z,12.33
2022-11-10T09:50:37.557Z,12.37
2022-11-10T09:53:10.511Z,12.41
2022-11-10T09:55:44.462Z,12.45
2022-11-10T09:58:13.603Z,12.49
2022-11-10T10:00:46.506Z,12.53
2022-11-10T10:03:17.306Z,12.56
2022-11-10T10:06:02.777Z,12.61
2022-11-10T10:08:42.967Z,12.65
2022-11-10T10:11:23.284Z,12.70
2022-11-10T10:14:13.585Z,12.76
2022-11-10T10:16:49.471Z,12.80
2022-11-10T10:19:26.025Z,12.84
2022-11-10T10:22:08.602Z,12.90
2022-11-10T10:24:38.114Z,12.95
2022-11-10T10:27:06.979Z,13.00
2022-11-10T10:29:38.021Z,13.04
2022-11-10T10:32:11.920Z,13.09
2022-11-10T10:34:41.460Z,13.14
2022-11-10T10:37:21.995Z,13.20
2022-11-10T10:39:50.939Z,13.24
2022-11-10T10:42:29.575Z,13.29
2022-11-10T10:45:19.920Z,13.35
2022-11-10T10:47:50.449Z,13.38
2022-11-10T10:50:23.844Z,13.42
2022-11-10T10:53:07.007Z,13.49
2022-11-10T10:55:34.325Z,13.52
2022-11-10T10:58:03.031Z,13.57
2022-11-10T11:00:29.771Z,13.61
2022-11-10T11:03:06.069Z,13.65
2022-11-10T11:05:32.936Z,13.69
2022-11-10T11:08:02.587Z,13.73
2022-11-10T11:10:31.037Z,13.78
2022-11-10T11:13:13.614Z,13.84
2022-11-10T11:15:41.111Z,13.89
2022-11-10T11:18:15.114Z,13.93
2022-11-10T11:20:48.802Z,13.96
2022-11-10T11:23:34.475Z,14.02
2022-11-10T11:26:11.031Z,14.07
2022-11-10T11:28:43.076Z,14.11
2022-11-10T11:31:18.430Z,14.15
2022-11-10T11:33:49.672Z,14.17
2022-11-10T11:36:28.359Z,14.19
2022-11-10T11:38:58.118Z,14.21
2022-11-10T11:41:35.210Z,14.24
2022-11-10T11:44:26.589Z,14.29
2022-11-10T11:47:02.357Z,14.33
2022-11-10T11:49:49.734Z,14.38
2022-11-10T11:52:28.416Z,14.41
2022-11-10T11:55:12.817Z,14.44
2022-11-10T11:57:53.300Z,14.48
2022-11-10T12:00:21.725Z,14.53
2022-11-10T12:03:36.156Z,14.59
2022-11-10T12:06:20.468Z,14.63
2022-11-10T12:08:57.190Z,14.69
2022-11-10T12:11:36.686Z,14.74
2022-11-10T12:14:11.048Z,14.79
2022-11-10T12:16:39.275Z,14.83
2022-11-10T12:19:15.553Z,14.88
2022-11-10T12:21:51.686Z,14.92
2022-11-10T12:24:31.579Z,14.96
2022-11-10T12:27:00.893Z,14.99
2022-11-10T12:29:34.290Z,15.05
2022-11-10T12:32:05.409Z,15.10
2022-11-10T12:34:35.835Z,15.12
2022-11-10T12:37:07.786Z,15.15
2022-11-10T12:39:44.343Z,15.19
2022-11-10T12:42:15.674Z,15.22
2022-11-10T12:44:55.229Z,15.24
2022-11-10T12:47:24.841Z,15.27
2022-11-10T12:49:59.603Z,15.31
2022-11-10T12:52:35.183Z,15.33
2022-11-10T12:55:01.971Z,15.32
2022-11-10T12:57:30.281Z,15.32
2022-11-10T13:00:00.931Z,15.33
2022-11-10T13:02:33.273Z,15.32
2022-11-10T13:05:23.563Z,15.32
2022-11-10T13:08:07.335Z,15.29
2022-11-10T13:10:34.523Z,15.28
2022-11-10T13:13:07.510Z,15.28
2022-11-10T13:15:57.119Z,15.29
2022-11-10T13:18:59.202Z,15.32
2022-11-10T13:22:22.934Z,15.34
2022-11-10T13:25:28.143Z,15.36
2022-11-10T13:27:56.129Z,15.38
2022-11-10T13:30:38.942Z,15.40
2022-11-10T13:33:30.064Z,15.40
2022-11-10T13:35:57.578Z,15.39
2022-11-10T13:38:38.173Z,15.42
2022-11-10T13:41:23.717Z,15.41
2022-11-10T13:43:53.835Z,15.40
2022-11-10T13:46:31.047Z,15.40
2022-11-10T13:49:22.235Z,15.40
2022-11-10T13:52:06.284Z,15.40
2022-11-10T13:54:59.621Z,15.39
2022-11-10T13:57:31.509Z,15.38
2022-11-10T14:00:01.622Z,15.39
2022-11-10T14:02:48.418Z,15.39
2022-11-10T14:06:01.375Z,15.39
2022-11-10T14:08:33.214Z,15.37
2022-11-10T14:11:02.835Z,15.37
2022-11-10T14:13:37.605Z,15.37
2022-11-10T14:16:16.084Z,15.39
2022-11-10T14:18:49.171Z,15.37
2022-11-10T14:21:24.826Z,15.37
2022-11-10T14:23:56.497Z,15.36
2022-11-10T14:26:27.720Z,15.36
2022-11-10T14:28:54.486Z,15.34
2022-11-10T14:31:24.492Z,15.33
2022-11-10T14:33:56.178Z,15.29
2022-11-10T14:36:23.692Z,15.31
2022-11-10T14:38:51.980Z,15.29
2022-11-10T14:41:21.892Z,15.27
2022-11-10T14:44:03.021Z,15.26
2022-11-10T14:46:31.177Z,15.24
2022-11-10T14:48:59.780Z,15.24
2022-11-10T14:51:29.039Z,15.22
2022-11-10T14:53:58.159Z,15.22
2022-11-10T14:56:31.203Z,15.23
2022-11-10T14:59:02.161Z,15.22
2022-11-10T15:01:35.104Z,15.22
2022-11-10T15:04:03.898Z,15.21
2022-11-10T15:06:31.302Z,15.18
2022-11-10T15:08:58.177Z,15.17
2022-11-10T15:11:37.983Z,15.16
2022-11-10T15:14:04.695Z,15.13
2022-11-10T15:16:36.639Z,15.13
2022-11-10T15:19:24.889Z,15.12
2022-11-10T15:21:51.574Z,15.11
2022-11-10T15:24:18.884Z,15.11
2022-11-10T15:26:45.772Z,15.10
2022-11-10T15:29:21.484Z,15.09
2022-11-10T15:31:51.945Z,15.06
2022-11-10T15:34:41.450Z,15.05
2022-11-10T15:37:30.446Z,15.00
2022-11-10T15:40:32.368Z,14.95
2022-11-10T15:43:14.243Z,14.92
2022-11-10T15:45:42.006Z,14.89
2022-11-10T15:48:12.936Z,14.88
2022-11-10T15:50:41.237Z,14.86
2022-11-10T15:53:13.423Z,14.84
2022-11-10T15:55:41.145Z,14.83
2022-11-10T15:58:12.737Z,14.80
2022-11-10T16:00:39.445Z,14.77
2022-11-10T16:03:15.073Z,14.76
2022-11-10T16:05:42.039Z,14.74
2022-11-10T16:08:12.615Z,14.71
2022-11-10T16:10:40.058Z,14.69
2022-11-10T16:13:09.448Z,14.66
2022-11-10T16:15:36.397Z,14.64
2022-11-10T16:18:04.587Z,14.61
2022-11-10T16:20:32.769Z,14.57
2022-11-10T16:22:59.584Z,14.55
2022-11-10T16:25:27.900Z,14.53
2022-11-10T16:27:54.691Z,14.52
2022-11-10T16:30:22.012Z,14.50
2022-11-10T16:32:48.579Z,14.48
2022-11-10T16:35:15.323Z,14.46
2022-11-10T16:37:44.016Z,14.44
2022-11-10T16:40:14.663Z,14.40
2022-11-10T16:42:44.635Z,14.37
2022-11-10T16:45:15.368Z,14.35
2022-11-10T16:47:48.615Z,14.36
2022-11-10T16:50:32.996Z,14.34
2022-11-10T16:53:03.555Z,14.31
2022-11-10T16:55:30.356Z,14.29
2022-11-10T16:57:57.309Z,14.27
2022-11-10T17:00:24.027Z,14.24
2022-11-10T17:03:00.745Z,14.23
2022-11-10T17:05:27.550Z,14.21
2022-11-10T17:07:54.701Z,14.21
2022-11-10T17:10:22.704Z,14.20
2022-11-10T17:12:49.632Z,14.18
2022-11-10T17:15:17.047Z,14.17
2022-11-10T17:17:46.192Z,14.16
2022-11-10T17:20:19.688Z,14.16
2022-11-10T17:22:46.860Z,14.13
2022-11-10T17:25:22.085Z,14.12
2022-11-10T17:27:50.074Z,14.10
2022-11-10T17:30:17.042Z,14.06
2022-11-10T17:33:04.093Z,14.03
2022-11-10T17:35:36.220Z,13.99
2022-11-10T17:38:06.609Z,13.96
2022-11-10T17:40:33.264Z,13.93
2022-11-10T17:43:01.178Z,13.91
2022-11-10T17:45:28.032Z,13.86
2022-11-10T17:47:54.671Z,13.85
2022-11-10T17:50:24.062Z,13.82
2022-11-10T17:52:50.704Z,13.79
2022-11-10T17:55:20.914Z,13.76
2022-11-10T17:57:48.373Z,13.74
2022-11-10T18:00:21.104Z,13.72
2022-11-10T18:02:54.028Z,13.69
2022-11-10T18:05:21.997Z,13.67
2022-11-10T18:07:51.091Z,13.65
2022-11-10T18:10:18.129Z,13.62
2022-11-10T18:12:46.538Z,13.59
2022-11-10T18:15:15.083Z,13.57
2022-11-10T18:17:43.968Z,13.54
2022-11-10T18:20:14.296Z,13.50
2022-11-10T18:22:41.056Z,13.47
2022-11-10T18:25:12.868Z,13.45
2022-11-10T18:27:39.698Z,13.41
2022-11-10T18:30:07.733Z,13.37
2022-11-10T18:32:34.898Z,13.35
2022-11-10T18:35:03.170Z,13.31
2022-11-10T18:37:29.758Z,13.30
2022-11-10T18:39:56.330Z,13.30
2022-11-10T18:42:23.144Z,13.27
2022-11-10T18:44:51.938Z,13.24
2022-11-10T18:47:21.587Z,13.21
2022-11-10T18:49:48.290Z,13.18
2022-11-10T18:52:16.223Z,13.15
2022-11-10T18:54:43.157Z,13.11
2022-11-10T18:57:12.421Z,13.11
2022-11-10T18:59:39.222Z,13.10
2022-11-10T19:02:07.099Z,13.07
2022-11-10T19:04:33.702Z,13.05
2022-11-10T19:07:00.577Z,13.04
2022-11-10T19:09:28.732Z,13.03
2022-11-10T19:11:55.781Z,13.00
2022-11-10T19:14:22.519Z,12.98
2022-11-10T19:16:49.776Z,12.96
2022-11-10T19:19:16.863Z,12.93
2022-11-10T19:21:43.568Z,12.92
2022-11-10T19:24:10.209Z,12.90
2022-11-10T19:26:40.357Z,12.89
2022-11-10T19:29:07.452Z,12.87
2022-11-10T19:31:34.588Z,12.86
2022-11-10T19:34:01.202Z,12.84
2022-11-10T19:36:28.630Z,12.82
2022-11-10T19:38:57.100Z,12.81
2022-11-10T19:41:27.143Z,12.79
2022-11-10T19:43:55.775Z,12.77
2022-11-10T19:46:24.547Z,12.76
2022-11-10T19:48:51.354Z,12.73
2022-11-10T19:51:19.174Z,12.70
2022-11-10T19:53:47.887Z,12.70
2022-11-10T19:56:17.935Z,12.68
2022-11-10T19:58:44.583Z,12.65
2022-11-10T20:01:13.488Z,12.66
2022-11-10T20:03:40.845Z,12.65
2022-11-10T20:06:11.953Z,12.63
2022-11-10T20:08:39.675Z,12.62
2022-11-10T20:11:09.607Z,12.62
2022-11-10T20:13:36.664Z,12.61
2022-11-10T20:16:04.212Z,12.60
2022-11-10T20:18:34.594Z,12.62
2022-11-10T20:21:04.856Z,12.60
2022-11-10T20:23:31.470Z,12.60
2022-11-10T20:26:03.301Z,12.61
2022-11-10T20:28:30.206Z,12.60
2022-11-10T20:30:58.232Z,12.59
2022-11-10T20:33:25.129Z,12.59
2022-11-10T20:35:53.309Z,12.59
2022-11-10T20:38:21.254Z,12.57
2022-11-10T20:40:48.264Z,12.55
2022-11-10T20:43:17.538Z,12.55
2022-11-10T20:45:44.525Z,12.54
2022-11-10T20:48:11.226Z,12.54
2022-11-10T20:50:40.234Z,12.53
2022-11-10T20:53:08.243Z,12.51
2022-11-10T20:55:54.438Z,12.48
2022-11-10T20:58:21.537Z,12.47
2022-11-10T21:00:48.871Z,12.46
2022-11-10T21:03:15.505Z,12.46
2022-11-10T21:05:44.023Z,12.45
2022-11-10T21:08:12.044Z,12.44
2022-11-10T21:10:39.123Z,12.43
2022-11-10T21:13:05.795Z,12.42
2022-11-10T21:15:32.628Z,12.42
2022-11-10T21:17:59.440Z,12.42
2022-11-10T21:20:26.222Z,12.39
2022-11-10T21:22:53.034Z,12.40
2022-11-10T21:25:21.500Z,12.39
2022-11-10T21:27:48.379Z,12.38
2022-11-10T21:30:23.061Z,12.34
2022-11-10T21:32:50.257Z,12.32
2022-11-10T21:35:17.095Z,12.32
2022-11-10T21:37:43.962Z,12.34
2022-11-10T21:40:12.990Z,12.33
2022-11-10T21:42:41.341Z,12.31
2022-11-10T21:45:09.998Z,12.30
2022-11-10T21:47:37.217Z,12.29
2022-11-10T21:50:04.892Z,12.28
2022-11-10T21:52:35.183Z,12.26
2022-11-10T21:55:01.891Z,12.27
2022-11-10T21:57:31.824Z,12.24
2022-11-10T21:59:59.926Z,12.22
2022-11-10T22:02:27.843Z,12.21
2022-11-10T22:04:55.512Z,12.18
2022-11-10T22:07:24.947Z,12.16
2022-11-10T22:10:10.817Z,12.13
2022-11-10T22:12:57.789Z,12.12
2022-11-10T22:15:44.639Z,12.08
2022-11-10T22:18:32.607Z,12.07
2022-11-10T22:20:59.251Z,12.05
2022-11-10T22:23:44.430Z,12.03
2022-11-10T22:26:11.497Z,12.01
2022-11-10T22:28:39.021Z,12.01
2022-11-10T22:31:08.568Z,12.01
2022-11-10T22:33:36.541Z,11.99
2022-11-10T22:36:04.832Z,11.99
2022-11-10T22:38:34.889Z,11.97
2022-11-10T22:41:20.069Z,11.97
2022-11-10T22:44:04.933Z,11.93
2022-11-10T22:46:35.483Z,11.95
2022-11-10T22:49:04.356Z,11.94
2022-11-10T22:51:31.817Z,11.92
2022-11-10T22:54:00.445Z,11.92
2022-11-10T22:56:27.774Z,11.92
2022-11-10T22:58:59.635Z,11.91
2022-11-10T23:01:27.229Z,11.90
2022-11-10T23:03:57.126Z,11.89
2022-11-10T23:06:25.351Z,11.88
2022-11-10T23:08:52.529Z,11.88
2022-11-10T23:11:21.057Z,11.88
2022-11-10T23:13:50.011Z,11.88
2022-11-10T23:16:17.557Z,11.85
2022-11-10T23:18:45.967Z,11.85
2022-11-10T23:21:17.940Z,11.84
2022-11-10T23:23:46.268Z,11.83
2022-11-10T23:26:14.819Z,11.82
2022-11-10T23:28:42.210Z,11.80
2022-11-10T23:31:11.972Z,11.79
2022-11-10T23:33:40.135Z,11.79
2022-11-10T23:36:09.365Z,11.78
2022-11-10T23:38:38.421Z,11.76
2022-11-10T23:41:07.031Z,11.74
2022-11-10T23:43:33.973Z,11.71
2022-11-10T23:46:06.992Z,11.69
2022-11-10T23:48:35.665Z,11.68
2022-11-10T23:51:02.890Z,11.68
2022-11-10T23:53:29.624Z,11.67
2022-11-10T23:55:58.795Z,11.66
2022-11-10T23:58:26.089Z,11.66
